Time,TemperatureF,DewpointF,PressureIn,WindDirection,WindDirectionDegrees,WindSpeedMPH,WindSpeedGustMPH,Humidity,HourlyPrecipIn,Conditions,Clouds,dailyrainin,SolarRadiationWatts/m^2,SoftwareType,DateUTC
2013-03-01 00:01:00,56.0,45.0,-100.00,ESE,113,3.0,10.0,67,0.00,,,0.00,0.000000,,2013-03-01 10:01:00,
2013-03-01 00:11:00,56.0,45.0,-100.00,ESE,113,3.0,10.0,67,0.00,,,0.00,0.000000,,2013-03-01 10:11:00,
2013-03-01 00:21:00,56.0,45.0,-100.00,ESE,113,3.0,10.0,67,0.00,,,0.00,0.000000,,2013-03-01 10:21:00,
2013-03-01 00:31:00,56.0,45.0,-100.00,ESE,113,3.0,10.0,67,0.00,,,0.00,0.000000,,2013-03-01 10:31:00,
2013-03-01 00:52:00,57.0,47.0,-100.00,ENE,73,5.0,16.0,69,0.00,,,0.00,0.000000,,2013-03-01 10:52:00,
2013-03-01 01:01:00,57.0,47.0,-100.00,ENE,73,5.0,16.0,69,0.00,,,0.00,0.000000,,2013-03-01 11:01:00,
2013-03-01 01:11:00,57.0,47.0,-100.00,ENE,73,5.0,16.0,69,0.00,,,0.00,0.000000,,2013-03-01 11:11:00,
2013-03-01 01:22:00,57.0,47.0,-100.00,ENE,73,5.0,16.0,69,0.00,,,0.00,0.000000,,2013-03-01 11:22:00,
2013-03-01 01:31:00,57.0,47.0,-100.00,ENE,73,5.0,16.0,69,0.00,,,0.00,0.000000,,2013-03-01 11:31:00,
2013-03-01 01:52:00,55.0,43.0,-100.00,ESE,117,5.0,13.0,64,0.00,,,0.00,0.000000,,2013-03-01 11:52:00,
2013-03-01 02:01:00,55.0,43.0,-100.00,ESE,117,5.0,13.0,64,0.00,,,0.00,0.000000,,2013-03-01 12:01:00,
2013-03-01 02:11:00,55.0,43.0,-100.00,ESE,117,5.0,13.0,64,0.00,,,0.00,0.000000,,2013-03-01 12:11:00,
2013-03-01 02:21:00,55.0,43.0,-100.00,ESE,117,5.0,13.0,64,0.00,,,0.00,0.000000,,2013-03-01 12:21:00,
2013-03-01 02:32:00,55.0,43.0,-100.00,ESE,117,5.0,13.0,64,0.00,,,0.00,0.000000,,2013-03-01 12:32:00,
2013-03-01 02:52:00,57.0,41.0,-100.00,East,79,6.0,19.0,54,0.00,,,0.00,0.000000,,2013-03-01 12:52:00,
2013-03-01 03:01:00,57.0,41.0,-100.00,East,79,6.0,19.0,54,0.00,,,0.00,0.000000,,2013-03-01 13:01:00,
2013-03-01 03:11:00,57.0,41.0,-100.00,East,79,6.0,19.0,54,0.00,,,0.00,0.000000,,2013-03-01 13:11:00,
2013-03-01 03:21:00,57.0,41.0,-100.00,East,79,6.0,19.0,54,0.00,,,0.00,0.000000,,2013-03-01 13:21:00,
2013-03-01 03:32:00,57.0,41.0,-100.00,East,79,6.0,19.0,54,0.00,,,0.00,0.000000,,2013-03-01 13:32:00,
2013-03-01 04:01:00,58.0,41.0,-100.00,ESE,123,6.0,16.0,53,0.00,,,0.00,0.000000,,2013-03-01 14:01:00,
2013-03-01 04:11:00,58.0,41.0,-100.00,ESE,123,6.0,16.0,53,0.00,,,0.00,0.000000,,2013-03-01 14:11:00,
2013-03-01 04:21:00,58.0,41.0,-100.00,ESE,123,6.0,16.0,53,0.00,,,0.00,0.000000,,2013-03-01 14:21:00,
2013-03-01 04:32:00,58.0,41.0,-100.00,ESE,123,6.0,16.0,53,0.00,,,0.00,0.000000,,2013-03-01 14:32:00,
2013-03-01 04:52:00,60.0,40.0,-100.00,SE,135,13.0,18.0,47,0.00,,,0.00,0.000000,,2013-03-01 14:52:00,
2013-03-01 05:01:00,60.0,40.0,-100.00,SE,135,13.0,18.0,47,0.00,,,0.00,0.000000,,2013-03-01 15:01:00,
2013-03-01 05:11:00,60.0,40.0,-100.00,SE,135,13.0,18.0,47,0.00,,,0.00,0.000000,,2013-03-01 15:11:00,
2013-03-01 05:21:00,60.0,40.0,-100.00,SE,135,13.0,18.0,47,0.00,,,0.00,0.000000,,2013-03-01 15:21:00,
2013-03-01 05:31:00,60.0,40.0,-100.00,SE,135,13.0,18.0,47,0.00,,,0.00,0.000000,,2013-03-01 15:31:00,
2013-03-01 05:52:00,55.0,41.0,-100.00,East,89,4.0,21.0,59,0.00,,,0.00,0.000000,,2013-03-01 15:52:00,
2013-03-01 06:01:00,55.0,41.0,-100.00,East,89,4.0,21.0,59,0.00,,,0.00,0.000000,,2013-03-01 16:01:00,
2013-03-01 06:11:00,55.0,41.0,-100.00,East,89,4.0,21.0,59,0.00,,,0.00,0.000000,,2013-03-01 16:11:00,
2013-03-01 06:21:00,55.0,41.0,-100.00,East,89,4.0,21.0,59,0.00,,,0.00,0.000000,,2013-03-01 16:21:00,
2013-03-01 06:31:00,55.0,41.0,-100.00,East,89,4.0,21.0,59,0.00,,,0.00,0.000000,,2013-03-01 16:31:00,
2013-03-01 06:52:00,53.0,39.0,-100.00,South,172,5.0,10.0,59,0.00,,,0.00,0.000000,,2013-03-01 16:52:00,
2013-03-01 07:01:00,53.0,39.0,-100.00,South,172,5.0,10.0,59,0.00,,,0.00,0.000000,,2013-03-01 17:01:00,
2013-03-01 07:11:00,53.0,39.0,-100.00,South,172,5.0,10.0,59,0.00,,,0.00,0.000000,,2013-03-01 17:11:00,
2013-03-01 07:21:00,53.0,39.0,-100.00,South,172,5.0,10.0,59,0.00,,,0.00,0.000000,,2013-03-01 17:21:00,
2013-03-01 07:31:00,53.0,39.0,-100.00,South,172,5.0,10.0,59,0.00,,,0.00,0.000000,,2013-03-01 17:31:00,
2013-03-01 07:52:00,59.0,42.0,-100.00,NW,319,2.0,9.0,53,0.00,,,-99.99,54.000000,,2013-03-01 17:52:00,
2013-03-01 08:01:00,59.0,42.0,-100.00,NW,319,2.0,9.0,53,0.00,,,-99.99,54.000000,,2013-03-01 18:01:00,
2013-03-01 08:12:00,59.0,42.0,-100.00,NW,319,2.0,9.0,53,0.00,,,-99.99,54.000000,,2013-03-01 18:12:00,
2013-03-01 08:22:00,59.0,42.0,-100.00,NW,319,2.0,9.0,53,0.00,,,-99.99,54.000000,,2013-03-01 18:22:00,
2013-03-01 08:31:00,59.0,42.0,-100.00,NW,319,2.0,9.0,53,0.00,,,-99.99,54.000000,,2013-03-01 18:31:00,
2013-03-01 08:52:00,67.0,40.0,-100.00,West,273,5.0,7.0,37,0.00,,,0.00,368.000000,,2013-03-01 18:52:00,
2013-03-01 09:01:00,67.0,40.0,-100.00,West,273,5.0,7.0,37,0.00,,,0.00,368.000000,,2013-03-01 19:01:00,
2013-03-01 09:11:00,67.0,40.0,-100.00,West,273,5.0,7.0,37,0.00,,,0.00,368.000000,,2013-03-01 19:11:00,
2013-03-01 09:21:00,67.0,40.0,-100.00,West,273,5.0,7.0,37,0.00,,,0.00,368.000000,,2013-03-01 19:21:00,
2013-03-01 09:31:00,67.0,40.0,-100.00,West,273,5.0,7.0,37,0.00,,,0.00,368.000000,,2013-03-01 19:31:00,
2013-03-01 09:52:00,67.0,51.0,-100.00,WSW,247,10.0,18.0,56,0.00,,,0.00,695.000000,,2013-03-01 19:52:00,
2013-03-01 10:01:00,67.0,51.0,-100.00,WSW,247,10.0,18.0,56,0.00,,,0.00,695.000000,,2013-03-01 20:01:00,
2013-03-01 10:11:00,67.0,51.0,-100.00,WSW,247,10.0,18.0,56,0.00,,,0.00,695.000000,,2013-03-01 20:11:00,
2013-03-01 10:21:00,67.0,51.0,-100.00,WSW,247,10.0,18.0,56,0.00,,,0.00,695.000000,,2013-03-01 20:21:00,
2013-03-01 10:31:00,67.0,51.0,-100.00,WSW,247,10.0,18.0,56,0.00,,,0.00,695.000000,,2013-03-01 20:31:00,
2013-03-01 10:52:00,71.0,49.0,-100.00,SW,228,10.0,18.0,46,0.00,,,0.00,907.000000,,2013-03-01 20:52:00,
2013-03-01 11:01:00,71.0,49.0,-100.00,SW,228,10.0,18.0,46,0.00,,,0.00,907.000000,,2013-03-01 21:01:00,
2013-03-01 11:11:00,71.0,49.0,-100.00,SW,228,10.0,18.0,46,0.00,,,0.00,907.000000,,2013-03-01 21:11:00,
2013-03-01 11:21:00,71.0,49.0,-100.00,SW,228,10.0,18.0,46,0.00,,,0.00,907.000000,,2013-03-01 21:21:00,
2013-03-01 11:31:00,71.0,49.0,-100.00,SW,228,10.0,18.0,46,0.00,,,0.00,907.000000,,2013-03-01 21:31:00,
2013-03-01 11:52:00,73.0,50.0,-100.00,West,260,13.0,18.0,44,0.00,,,0.00,1092.000000,,2013-03-01 21:52:00,
2013-03-01 12:01:00,73.0,50.0,-100.00,West,260,13.0,18.0,44,0.00,,,0.00,1092.000000,,2013-03-01 22:01:00,
2013-03-01 12:11:00,73.0,50.0,-100.00,West,260,13.0,18.0,44,0.00,,,0.00,1092.000000,,2013-03-01 22:11:00,
2013-03-01 12:21:00,73.0,50.0,-100.00,West,260,13.0,18.0,44,0.00,,,0.00,1092.000000,,2013-03-01 22:21:00,
2013-03-01 12:31:00,73.0,50.0,-100.00,West,260,13.0,18.0,44,0.00,,,0.00,1092.000000,,2013-03-01 22:31:00,
2013-03-01 12:52:00,76.0,45.0,-100.00,NNE,31,21.0,34.0,33,0.00,,,0.00,1157.000000,,2013-03-01 22:52:00,
2013-03-01 13:01:00,76.0,45.0,-100.00,NNE,31,21.0,34.0,33,0.00,,,0.00,1157.000000,,2013-03-01 23:01:00,
2013-03-01 13:11:00,76.0,45.0,-100.00,NNE,31,21.0,34.0,33,0.00,,,0.00,1157.000000,,2013-03-01 23:11:00,
2013-03-01 13:21:00,76.0,45.0,-100.00,NNE,31,21.0,34.0,33,0.00,,,0.00,1157.000000,,2013-03-01 23:21:00,
2013-03-01 13:31:00,76.0,45.0,-100.00,NNE,31,21.0,34.0,33,0.00,,,0.00,1157.000000,,2013-03-01 23:31:00,
2013-03-01 13:52:00,74.0,47.0,-100.00,NE,39,20.0,36.0,39,0.00,,,0.00,1171.000000,,2013-03-01 23:52:00,
2013-03-01 14:01:00,74.0,47.0,-100.00,NE,39,20.0,36.0,39,0.00,,,0.00,1171.000000,,2013-03-02 00:01:00,
2013-03-01 14:11:00,74.0,47.0,-100.00,NE,39,20.0,36.0,39,0.00,,,0.00,1171.000000,,2013-03-02 00:11:00,
2013-03-01 14:21:00,74.0,47.0,-100.00,NE,39,20.0,36.0,39,0.00,,,0.00,1171.000000,,2013-03-02 00:21:00,
2013-03-01 14:31:00,74.0,47.0,-100.00,NE,39,20.0,36.0,39,0.00,,,0.00,1171.000000,,2013-03-02 00:31:00,
2013-03-01 15:01:00,73.0,46.0,-100.00,NE,38,21.0,33.0,38,0.00,,,0.00,1082.000000,,2013-03-02 01:01:00,
2013-03-01 15:11:00,73.0,46.0,-100.00,NE,38,21.0,33.0,38,0.00,,,0.00,1082.000000,,2013-03-02 01:11:00,
2013-03-01 15:21:00,73.0,46.0,-100.00,NE,38,21.0,33.0,38,0.00,,,0.00,1082.000000,,2013-03-02 01:21:00,
2013-03-01 15:31:00,73.0,46.0,-100.00,NE,38,21.0,33.0,38,0.00,,,0.00,1082.000000,,2013-03-02 01:31:00,
2013-03-01 16:01:00,73.0,43.0,-100.00,NE,42,20.0,33.0,34,0.00,,,0.00,903.000000,,2013-03-02 02:01:00,
2013-03-01 16:11:00,73.0,43.0,-100.00,NE,42,20.0,33.0,34,0.00,,,0.00,903.000000,,2013-03-02 02:11:00,
2013-03-01 16:21:00,73.0,43.0,-100.00,NE,42,20.0,33.0,34,0.00,,,0.00,903.000000,,2013-03-02 02:21:00,
2013-03-01 16:31:00,73.0,43.0,-100.00,NE,42,20.0,33.0,34,0.00,,,0.00,903.000000,,2013-03-02 02:31:00,
2013-03-01 17:01:00,70.0,49.0,-100.00,NE,45,20.0,34.0,48,0.00,,,0.00,653.000000,,2013-03-02 03:01:00,
2013-03-01 17:11:00,70.0,49.0,-100.00,NE,45,20.0,34.0,48,0.00,,,0.00,653.000000,,2013-03-02 03:11:00,
2013-03-01 17:21:00,70.0,49.0,-100.00,NE,45,20.0,34.0,48,0.00,,,0.00,653.000000,,2013-03-02 03:21:00,
2013-03-01 17:32:00,70.0,49.0,-100.00,NE,45,20.0,34.0,48,0.00,,,0.00,653.000000,,2013-03-02 03:32:00,
2013-03-01 17:52:00,69.0,48.0,-100.00,NE,48,16.0,35.0,47,0.00,,,0.00,359.000000,,2013-03-02 03:52:00,
2013-03-01 18:01:00,69.0,48.0,-100.00,NE,48,16.0,35.0,47,0.00,,,0.00,359.000000,,2013-03-02 04:01:00,
2013-03-01 18:11:00,69.0,48.0,-100.00,NE,48,16.0,35.0,47,0.00,,,0.00,359.000000,,2013-03-02 04:11:00,
2013-03-01 18:21:00,69.0,48.0,-100.00,NE,48,16.0,35.0,47,0.00,,,0.00,359.000000,,2013-03-02 04:21:00,
2013-03-01 18:31:00,69.0,48.0,-100.00,NE,48,16.0,35.0,47,0.00,,,0.00,359.000000,,2013-03-02 04:31:00,
2013-03-01 18:52:00,61.0,47.0,-100.00,ENE,73,13.0,25.0,59,0.00,,,0.00,72.000000,,2013-03-02 04:52:00,
2013-03-01 19:01:00,61.0,47.0,-100.00,ENE,73,13.0,25.0,59,0.00,,,0.00,72.000000,,2013-03-02 05:01:00,
2013-03-01 19:12:00,61.0,47.0,-100.00,ENE,73,13.0,25.0,59,0.00,,,0.00,72.000000,,2013-03-02 05:12:00,
2013-03-01 19:22:00,61.0,47.0,-100.00,ENE,73,13.0,25.0,59,0.00,,,0.00,72.000000,,2013-03-02 05:22:00,
2013-03-01 19:31:00,61.0,47.0,-100.00,ENE,73,13.0,25.0,59,0.00,,,0.00,72.000000,,2013-03-02 05:31:00,
2013-03-01 20:01:00,60.0,49.0,-100.00,ENE,70,9.0,23.0,66,0.00,,,0.00,0.000000,,2013-03-02 06:01:00,
2013-03-01 20:11:00,60.0,49.0,-100.00,ENE,70,9.0,23.0,66,0.00,,,0.00,0.000000,,2013-03-02 06:11:00,
2013-03-01 20:21:00,60.0,49.0,-100.00,ENE,70,9.0,23.0,66,0.00,,,0.00,0.000000,,2013-03-02 06:21:00,
2013-03-01 20:31:00,60.0,49.0,-100.00,ENE,70,9.0,23.0,66,0.00,,,0.00,0.000000,,2013-03-02 06:31:00,
2013-03-01 20:52:00,57.0,46.0,-100.00,SSW,212,6.0,16.0,66,0.00,,,0.00,0.000000,,2013-03-02 06:52:00,
2013-03-01 21:01:00,57.0,46.0,-100.00,SSW,212,6.0,16.0,66,0.00,,,0.00,0.000000,,2013-03-02 07:01:00,
2013-03-01 21:11:00,57.0,46.0,-100.00,SSW,212,6.0,16.0,66,0.00,,,0.00,0.000000,,2013-03-02 07:11:00,
2013-03-01 21:21:00,57.0,46.0,-100.00,SSW,212,6.0,16.0,66,0.00,,,0.00,0.000000,,2013-03-02 07:21:00,
2013-03-01 21:32:00,57.0,46.0,-100.00,SSW,212,6.0,16.0,66,0.00,,,0.00,0.000000,,2013-03-02 07:32:00,
2013-03-01 21:52:00,58.0,53.0,-100.00,South,177,5.0,13.0,83,0.00,,,0.00,0.000000,,2013-03-02 07:52:00,
2013-03-01 22:01:00,58.0,53.0,-100.00,South,177,5.0,13.0,83,0.00,,,0.00,0.000000,,2013-03-02 08:01:00,
2013-03-01 22:11:00,58.0,53.0,-100.00,South,177,5.0,13.0,83,0.00,,,0.00,0.000000,,2013-03-02 08:11:00,
2013-03-01 22:21:00,58.0,53.0,-100.00,South,177,5.0,13.0,83,0.00,,,0.00,0.000000,,2013-03-02 08:21:00,
2013-03-01 22:31:00,58.0,53.0,-100.00,South,177,5.0,13.0,83,0.00,,,0.00,0.000000,,2013-03-02 08:31:00,
2013-03-01 22:52:00,56.0,52.0,-100.00,SE,141,1.0,7.0,87,0.00,,,0.00,0.000000,,2013-03-02 08:52:00,
2013-03-01 23:01:00,56.0,52.0,-100.00,SE,141,1.0,7.0,87,0.00,,,0.00,0.000000,,2013-03-02 09:01:00,
2013-03-01 23:11:00,56.0,52.0,-100.00,SE,141,1.0,7.0,87,0.00,,,0.00,0.000000,,2013-03-02 09:11:00,
2013-03-01 23:21:00,56.0,52.0,-100.00,SE,141,1.0,7.0,87,0.00,,,0.00,0.000000,,2013-03-02 09:21:00,
2013-03-01 23:31:00,56.0,52.0,-100.00,SE,141,1.0,7.0,87,0.00,,,0.00,0.000000,,2013-03-02 09:31:00,
2013-03-01 23:52:00,54.0,51.0,-100.00,SSE,149,6.0,8.0,88,0.00,,,0.00,0.000000,,2013-03-02 09:52:00,